createdAt,value
2023-11-24T00:02:33.195Z,98973.06
2023-11-24T00:07:36.496Z,98982.84
2023-11-24T00:12:39.376Z,98991.09
2023-11-24T00:17:43.689Z,98989.16
2023-11-24T00:22:46.548Z,99002.50
2023-11-24T00:27:50.655Z,99007.53
2023-11-24T00:32:55.607Z,99019.00
2023-11-24T00:37:58.612Z,98992.72
2023-11-24T00:43:02.107Z,98982.22
2023-11-24T00:48:07.240Z,98964.94
2023-11-24T00:53:10.198Z,98978.94
2023-11-24T00:58:13.020Z,98993.59
2023-11-24T01:03:17.345Z,98990.06
2023-11-24T01:08:20.238Z,98989.22
2023-11-24T01:13:23.056Z,98981.94
2023-11-24T01:18:28.874Z,98975.47
2023-11-24T01:23:31.886Z,98996.44
2023-11-24T01:28:35.308Z,98996.19
2023-11-24T01:33:40.114Z,98981.28
2023-11-24T01:38:42.953Z,99004.19
2023-11-24T01:43:58.926Z,98975.94
2023-11-24T01:49:05.865Z,98992.63
2023-11-24T01:54:09.123Z,99013.00
2023-11-24T01:59:12.611Z,98997.97
2023-11-24T02:04:16.936Z,98982.50
2023-11-24T02:09:20.041Z,98983.97
2023-11-24T02:14:22.882Z,98988.97
2023-11-24T02:19:28.080Z,98988.47
2023-11-24T02:24:32.268Z,99009.69
2023-11-24T02:29:35.060Z,99012.56
2023-11-24T02:34:37.912Z,99000.19
2023-11-24T02:39:42.144Z,99004.06
2023-11-24T02:44:45.816Z,98997.25
2023-11-24T02:49:48.853Z,98985.75
2023-11-24T02:54:54.118Z,98988.59
2023-11-24T02:59:57.901Z,98982.66
2023-11-24T03:05:00.825Z,98968.44
2023-11-24T03:10:06.365Z,98954.88
2023-11-24T03:15:12.372Z,98965.81
2023-11-24T03:20:16.360Z,98968.75
2023-11-24T03:25:20.627Z,98974.53
2023-11-24T03:30:25.093Z,98964.75
2023-11-24T03:35:28.039Z,98965.59
2023-11-24T03:40:32.765Z,98956.63
2023-11-24T03:45:36.418Z,98955.22
2023-11-24T03:50:39.281Z,98940.19
2023-11-24T03:55:43.561Z,98947.59
2023-11-24T04:00:47.229Z,98945.97
2023-11-24T04:05:50.154Z,98938.50
2023-11-24T04:10:56.852Z,98941.41
2023-11-24T04:16:01.250Z,98940.50
2023-11-24T04:21:04.370Z,98949.03
2023-11-24T04:26:08.545Z,98948.19
2023-11-24T04:31:11.339Z,98947.22
2023-11-24T04:36:15.312Z,98947.38
2023-11-24T04:41:19.691Z,98947.13
2023-11-24T04:46:23.105Z,98930.38
2023-11-24T04:51:26.065Z,98920.75
2023-11-24T04:56:30.361Z,98919.19
2023-11-24T05:01:33.272Z,98919.50
2023-11-24T05:06:36.321Z,98913.38
2023-11-24T05:11:40.691Z,98899.22
2023-11-24T05:16:43.510Z,98894.13
2023-11-24T05:21:46.325Z,98893.41
2023-11-24T05:26:50.900Z,98881.91
2023-11-24T05:31:53.844Z,98876.66
2023-11-24T05:36:56.836Z,98878.78
2023-11-24T05:42:01.572Z,98884.47
2023-11-24T05:47:05.996Z,98892.88
2023-11-24T05:52:15.390Z,98881.38
2023-11-24T05:57:19.567Z,98875.28
2023-11-24T06:02:22.916Z,98888.09
2023-11-24T06:07:25.798Z,98871.19
2023-11-24T06:12:30.808Z,98870.34
2023-11-24T06:17:33.763Z,98881.44
2023-11-24T06:22:36.542Z,98880.72
2023-11-24T06:27:40.763Z,98872.94
2023-11-24T06:32:43.685Z,98876.75
2023-11-24T06:37:46.597Z,98871.53
2023-11-24T06:42:50.799Z,98872.69
2023-11-24T06:47:53.642Z,98866.56
2023-11-24T06:52:56.598Z,98863.19
2023-11-24T06:58:00.812Z,98857.09
2023-11-24T07:03:03.777Z,98854.94
2023-11-24T07:08:06.826Z,98845.31
2023-11-24T07:13:11.070Z,98838.06
2023-11-24T07:18:14.433Z,98833.81
2023-11-24T07:23:17.529Z,98843.91
2023-11-24T07:28:21.727Z,98856.69
2023-11-24T07:33:24.626Z,98842.47
2023-11-24T07:38:27.902Z,98849.88
2023-11-24T07:43:32.938Z,98846.88
2023-11-24T07:48:36.074Z,98853.53
2023-11-24T07:53:38.949Z,98842.19
2023-11-24T07:58:43.129Z,98837.81
2023-11-24T08:03:46.077Z,98840.34
2023-11-24T08:08:48.927Z,98859.88
2023-11-24T08:13:54.839Z,98834.09
2023-11-24T08:18:57.693Z,98836.88
2023-11-24T08:24:00.715Z,98823.09
2023-11-24T08:29:04.951Z,98808.28
2023-11-24T08:34:09.716Z,98815.66
2023-11-24T08:39:14.313Z,98799.56
2023-11-24T08:44:25.281Z,98793.56
2023-11-24T08:49:28.140Z,98786.03
2023-11-24T08:54:30.932Z,98780.22
2023-11-24T08:59:35.166Z,98783.44
2023-11-24T09:04:38.111Z,98789.66
2023-11-24T09:09:42.486Z,98781.56
2023-11-24T09:14:46.706Z,98763.41
2023-11-24T09:19:50.729Z,98766.78
2023-11-24T09:24:53.654Z,98778.44
2023-11-24T09:29:57.830Z,98781.84
2023-11-24T09:35:00.812Z,98778.16
2023-11-24T09:40:04.868Z,98767.03
2023-11-24T09:45:16.213Z,98750.84
2023-11-24T09:50:25.826Z,98738.53
2023-11-24T09:55:30.671Z,98741.22
2023-11-24T10:00:35.008Z,98732.44
2023-11-24T10:05:37.973Z,98720.66
2023-11-24T10:10:40.794Z,98699.59
2023-11-24T10:15:45.001Z,98675.31
2023-11-24T10:20:47.820Z,98675.03
2023-11-24T10:25:50.565Z,98662.38
2023-11-24T10:30:55.683Z,98641.69
2023-11-24T10:36:00.134Z,98632.97
2023-11-24T10:41:05.474Z,98620.03
2023-11-24T10:46:16.218Z,98610.75
2023-11-24T10:51:28.813Z,98608.06
2023-11-24T10:56:34.958Z,98614.84
2023-11-24T11:01:39.356Z,98615.06
2023-11-24T11:06:49.970Z,98602.28
2023-11-24T11:12:14.753Z,98592.34
2023-11-24T11:17:21.523Z,98584.47
2023-11-24T11:22:29.958Z,98576.25
2023-11-24T11:27:36.479Z,98575.22
2023-11-24T11:32:40.737Z,98577.38
2023-11-24T11:37:43.780Z,98575.16
2023-11-24T11:42:59.599Z,98570.78
2023-11-24T11:48:05.811Z,98575.50
2023-11-24T11:53:10.011Z,98573.81
2023-11-24T11:58:14.472Z,98596.53
2023-11-24T12:03:19.639Z,98593.00
2023-11-24T12:08:24.482Z,98595.69
2023-11-24T12:13:27.770Z,98589.28
2023-11-24T12:18:32.158Z,98580.13
2023-11-24T12:23:37.800Z,98559.78
2023-11-24T12:28:41.945Z,98565.00
2023-11-24T12:33:53.037Z,98569.72
2023-11-24T12:38:55.966Z,98578.50
2023-11-24T12:44:00.478Z,98581.19
2023-11-24T12:49:05.815Z,98562.47
2023-11-24T12:54:09.694Z,98553.69
2023-11-24T12:59:12.663Z,98541.03
2023-11-24T13:04:17.282Z,98534.09
2023-11-24T13:09:23.653Z,98527.00
2023-11-24T13:14:26.533Z,98518.91
2023-11-24T13:19:32.303Z,98511.66
2023-11-24T13:24:36.839Z,98512.22
2023-11-24T13:29:43.513Z,98519.03
2023-11-24T13:34:47.990Z,98513.63
2023-11-24T13:39:51.240Z,98501.91
2023-11-24T13:44:54.681Z,98501.59
2023-11-24T13:49:59.761Z,98495.38
2023-11-24T13:55:07.975Z,98479.84
2023-11-24T14:00:12.719Z,98488.78
2023-11-24T14:05:17.165Z,98471.94
2023-11-24T14:10:20.793Z,98476.31
2023-11-24T14:15:24.504Z,98461.81
2023-11-24T14:20:28.848Z,98456.41
2023-11-24T14:25:31.925Z,98438.88
2023-11-24T14:30:39.421Z,98431.97
2023-11-24T14:35:43.957Z,98429.09
2023-11-24T14:40:47.230Z,98423.69
2023-11-24T14:45:50.070Z,98420.31
2023-11-24T14:50:55.095Z,98426.47
2023-11-24T14:55:57.918Z,98415.97
2023-11-24T15:01:03.669Z,98438.22
2023-11-24T15:06:15.422Z,98451.34
2023-11-24T15:11:22.157Z,98488.41
2023-11-24T15:16:29.990Z,98481.16
2023-11-24T15:21:36.258Z,98472.75
2023-11-24T15:26:40.752Z,98467.34
2023-11-24T15:31:46.217Z,98463.78
2023-11-24T15:36:51.088Z,98444.03
2023-11-24T15:41:53.912Z,98438.63
2023-11-24T15:46:56.755Z,98447.91
2023-11-24T15:52:02.989Z,98448.75
2023-11-24T15:57:06.236Z,98446.91
2023-11-24T16:02:09.510Z,98428.34
2023-11-24T16:07:18.618Z,98434.44
2023-11-24T16:12:23.647Z,98426.50
2023-11-24T16:17:26.536Z,98427.47
2023-11-24T16:22:30.821Z,98415.00
2023-11-24T16:27:33.671Z,98396.28
2023-11-24T16:32:36.538Z,98397.97
2023-11-24T16:37:41.941Z,98398.56
2023-11-24T16:42:45.221Z,98392.69
2023-11-24T16:47:48.081Z,98384.22
2023-11-24T16:52:52.438Z,98385.03
2023-11-24T16:57:55.424Z,98386.88
2023-11-24T17:02:58.995Z,98365.97
2023-11-24T17:08:05.216Z,98379.94
2023-11-24T17:13:09.116Z,98390.06
2023-11-24T17:18:12.103Z,98411.28
2023-11-24T17:23:17.704Z,98424.09
2023-11-24T17:28:21.711Z,98431.34
2023-11-24T17:33:24.707Z,98426.03
2023-11-24T17:38:28.892Z,98403.66
2023-11-24T17:43:31.749Z,98380.41
2023-11-24T17:48:35.508Z,98380.41
2023-11-24T17:53:42.326Z,98362.88
2023-11-24T17:58:45.143Z,98354.75
2023-11-24T18:03:49.303Z,98359.25
2023-11-24T18:08:53.755Z,98353.28
2023-11-24T18:13:56.948Z,98342.09
2023-11-24T18:19:03.166Z,98338.16
2023-11-24T18:24:08.637Z,98336.97
2023-11-24T18:29:15.001Z,98338.31
2023-11-24T18:34:17.958Z,98333.41
2023-11-24T18:39:22.157Z,98322.25
2023-11-24T18:44:25.058Z,98308.09
2023-11-24T18:49:28.189Z,98295.59
2023-11-24T18:54:32.969Z,98279.75
2023-11-24T18:59:37.792Z,98283.63
2023-11-24T19:04:40.640Z,98276.72
2023-11-24T19:09:47.337Z,98271.16
2023-11-24T19:14:50.157Z,98275.03
2023-11-24T19:19:53.008Z,98277.84
2023-11-24T19:24:57.324Z,98274.00
2023-11-24T19:30:00.208Z,98272.81
2023-11-24T19:35:04.946Z,98270.69
2023-11-24T19:40:11.200Z,98259.81
2023-11-24T19:45:14.397Z,98265.06
2023-11-24T19:50:17.572Z,98271.34
2023-11-24T19:55:21.780Z,98261.91
2023-11-24T20:00:25.238Z,98251.78
2023-11-24T20:05:30.641Z,98251.78
2023-11-24T20:10:34.985Z,98254.50
2023-11-24T20:15:39.185Z,98250.13
2023-11-24T20:20:44.436Z,98248.06
2023-11-24T20:25:49.489Z,98248.91
2023-11-24T20:30:52.332Z,98248.91
2023-11-24T20:35:55.647Z,98241.59
2023-11-24T20:41:00.228Z,98240.34
2023-11-24T20:46:04.572Z,98260.88
2023-11-24T20:51:10.882Z,98263.59
2023-11-24T20:56:15.461Z,98265.34
2023-11-24T21:01:18.517Z,98263.50
2023-11-24T21:06:21.620Z,98268.59
2023-11-24T21:11:27.839Z,98267.47
2023-11-24T21:16:30.691Z,98279.31
2023-11-24T21:21:34.353Z,98268.19
2023-11-24T21:26:38.589Z,98265.53
2023-11-24T21:31:41.745Z,98258.41
2023-11-24T21:36:44.775Z,98264.84
2023-11-24T21:41:49.590Z,98268.34
2023-11-24T21:46:52.457Z,98270.50
2023-11-24T21:51:56.881Z,98265.44
2023-11-24T21:57:01.688Z,98270.66
2023-11-24T22:02:05.523Z,98264.22
2023-11-24T22:07:09.665Z,98275.66
2023-11-24T22:12:13.952Z,98276.78
2023-11-24T22:17:17.283Z,98290.09
2023-11-24T22:22:20.540Z,98295.63
2023-11-24T22:27:24.751Z,98302.56
2023-11-24T22:32:28.299Z,98318.63
2023-11-24T22:37:33.048Z,98325.53
2023-11-24T22:42:37.663Z,98342.63
2023-11-24T22:47:44.316Z,98344.81
2023-11-24T22:52:47.838Z,98360.69
2023-11-24T22:57:52.333Z,98367.47
2023-11-24T23:02:55.598Z,98383.31
2023-11-24T23:07:58.765Z,98410.38
2023-11-24T23:13:04.511Z,98422.22
2023-11-24T23:18:07.736Z,98442.84
2023-11-24T23:23:10.893Z,98463.13
2023-11-24T23:28:15.411Z,98482.03
2023-11-24T23:33:18.784Z,98481.34
2023-11-24T23:38:23.048Z,98503.47
2023-11-24T23:43:27.491Z,98516.16
2023-11-24T23:48:30.508Z,98536.94
2023-11-24T23:53:33.449Z,98551.66
2023-11-24T23:58:38.502Z,98569.56
